메인 페이지
METAR-TAF:

METAR-TAF

공항 :

헨더슨, 네바다, 미국

위도: 35-58-35N, 경도: 115-07-58W, 고도: 749m

현재 날씨관측

예보는 18 시간 29분 전, 14:56시(UTC)에 발표되었습니다.
4kt
온도 -3°C
습도 46%
기압 1019 hPa
시정: 16.1km
맑음

METAR: KHND 201456Z 19004KT 10SM CLR M03/M13 A3009 RMK AO2 SLP208 T10281133 53022 $

시각: 01:25 (09:25 UTC)

예보

예보는 22 시간 5분 전, 11:20시(UTC)에 발표되었습니다.
예보 대상 시간: 20일 12시부터 21일 12시까지 (UTC)
8kt
시정: 10km
맑음
20일 1700시부터 (UTC)
8kt
시정: 10km
고도 12000ft 상공 구름 조금
20일 2100시부터 (UTC)
북북동6kt
시정: 10km
고도 12000ft 상공 구름 조금
21일 0400시부터 (UTC)
6kt
시정: 10km
고도 25000ft 상공 구름 많음

TAF: KHND 201120Z 2012/2112 18008KT P6SM SKC FM201700 36008KT P6SM FEW120 FM202100 03006KT P6SM FEW120 FM210400 17006KT P6SM BKN250

4,000개 이상의 공항 관측 자료 및 예보 (METAR 및 TAF 보고).

지도상에서 검색 가능한 기상관측소가 노란 점과 빨간 점으로 표시되어 있습니다.

기상관측소 명을 보려면 표시 위로 마우스를 이동하세요.

날씨 관측과 예보를 보려면 클릭하세요.

지도 변경 : 확대하려면 엑스 표시가 있는 녹색 버튼, 축소하려면 빼기 표시가 있는 녹색 버튼, 다음 페이지의 지도를 보려면 녹색 화살표를 클릭하세요.


METAR-TAF: